EST,Max TemperatureF,Mean TemperatureF,Min TemperatureF,Max Dew PointF,MeanDew PointF,Min DewpointF,Max Humidity, Mean Humidity, Min Humidity, Max Sea Level PressureIn, Mean Sea Level PressureIn, Min Sea Level PressureIn, Max VisibilityMiles, Mean VisibilityMiles, Min VisibilityMiles, Max Wind SpeedMPH, Mean Wind SpeedMPH, Max Gust SpeedMPH,PrecipitationIn, CloudCover, Events, WindDirDegrees
2013-7-1,77,65,53,57,49,40,94,56,20,30.08,30.01,29.95,19,10,6,17,11,,0.00,1,,161
2013-7-2,77,64,50,54,49,41,100,66,18,30.09,30.04,29.98,6,6,6,17,5,,0.00,1,,171
2013-7-3,78,64,51,61,55,47,100,68,32,30.08,30.04,29.98,19,7,6,21,7,,0.00,2,,176
2013-7-4,76,72,67,68,65,60,94,82,63,30.02,29.97,29.91,16,6,2,16,11,,0.02,6,Rain,170
2013-7-5,82,74,66,66,65,63,94,75,50,30.02,29.98,29.92,19,7,6,17,10,,0.00,3,,155
2013-7-6,82,76,69,70,66,63,88,75,54,30.07,30.01,29.95,19,6,6,16,12,,0.00,6,Rain,168
2013-7-7,82,77,72,70,67,64,88,73,53,30.14,30.05,30.01,19,7,3,24,14,,0.00,4,Rain,151
2013-7-8,81,75,69,68,66,62,94,73,47,30.15,30.10,30.06,12,6,6,30,20,38,0.16,4,Rain,148
2013-7-9,75,72,68,68,65,61,94,82,64,30.11,30.06,30.01,12,6,2,29,19,39,0.12,7,Rain,152
2013-7-10,78,72,66,68,66,63,100,83,55,30.11,30.04,30.01,19,6,2,31,18,38,0.35,6,Rain,161
2013-7-11,79,73,67,68,66,64,94,81,58,30.14,30.08,30.04,12,6,3,28,16,33,0.08,6,Rain,156
2013-7-12,79,73,67,66,65,63,94,76,52,30.12,30.07,30.04,16,7,3,31,18,33,0.08,4,Rain,154
2013-7-13,77,72,66,66,64,61,94,79,47,30.12,30.06,30.01,19,6,2,34,19,33,0.02,4,Rain,162
2013-7-14,78,72,66,64,62,57,94,73,41,30.09,30.04,30.01,19,7,5,40,17,33,0.01,4,Rain,159
2013-7-15,78,72,66,66,64,62,94,79,53,30.08,30.03,29.98,19,7,3,42,16,,0.02,4,Rain,167
2013-7-16,78,72,66,64,63,61,88,73,48,30.06,30.02,29.95,19,7,6,38,15,,0.00,2,Rain,162
2013-7-17,80,74,67,67,65,64,94,76,48,30.05,30.00,29.95,16,7,6,38,17,,0.01,3,Rain,159
2013-7-18,77,73,69,70,66,63,100,79,60,30.01,29.98,29.95,19,7,3,20,12,,0.16,4,Rain,168
2013-7-19,78,74,70,72,68,66,94,82,66,30.02,29.96,29.89,12,6,4,14,8,,0.08,6,Rain,171
2013-7-20,79,72,66,66,65,63,94,74,50,29.99,29.94,29.86,19,7,6,12,8,,0.01,2,Rain,135
2013-7-21,81,72,64,64,63,59,94,73,43,30.04,29.96,29.92,19,7,6,15,8,,0.00,2,,152
2013-7-22,81,74,66,66,64,61,83,71,46,30.09,30.02,29.95,19,7,6,20,10,,0.00,4,,154
2013-7-23,80,73,66,65,62,59,94,68,42,30.10,30.04,30.01,19,7,6,20,11,,0.00,2,,158
2013-7-24,73,70,66,57,45,37,60,39,21,30.12,30.07,30.01,19,7,6,24,17,34,0.00,4,,156
2013-7-25,77,70,62,59,51,40,68,52,27,30.14,30.09,30.04,19,7,6,24,14,33,0.00,3,,158
2013-7-26,75,70,66,65,61,59,94,71,51,30.14,30.08,30.04,19,7,3,22,16,30,0.16,6,Rain,164
2013-7-27,77,70,64,66,63,61,100,79,49,30.14,30.08,30.04,19,7,2,26,13,33,0.03,5,Rain,162
2013-7-28,79,72,66,64,62,60,88,69,44,30.11,30.06,30.01,19,7,6,24,14,,0.02,3,Rain,158
2013-7-29,80,73,66,65,61,58,88,68,38,30.07,30.01,29.95,19,7,5,20,13,,0.00,2,Rain,161
2013-7-30,80,70,60,63,60,55,94,68,39,30.01,29.94,29.86,19,7,6,16,11,,0.00,3,Rain,159
2013-7-31,79,70,60,61,58,52,94,66,30,30.00,29.94,29.89,19,7,6,21,10,,0.00,2,Rain,157